Time;durP1;ratioP1;P1;durP2;ratioP2;P2;SDS_P1;SDS_P2;PMS_P1;PMS_P2;Temp;Humidity;BMP_temperature;BMP_pressure;BME280_temperature;BME280_humidity;BME280_pressure;Samples;Min_cycle;Max_cycle;Signal;HPM_P1;HPM_P2
2022/07/08 00:01:12;;;;;;;7.57;1.55;;;17.80;61.30;;;;;;5116530;28;20020;-74
2022/07/08 00:03:37;;;;;;;5.57;1.30;;;17.90;61.30;;;;;;5116501;28;20032;-74
2022/07/08 00:06:03;;;;;;;4.60;0.95;;;17.80;61.40;;;;;;5116584;28;20036;-74
2022/07/08 00:08:30;;;;;;;3.15;0.95;;;17.70;61.50;;;;;;5116341;28;20024;-74
2022/07/08 00:10:57;;;;;;;4.38;1.48;;;17.70;62.60;;;;;;5098686;28;20024;-74
2022/07/08 00:13:22;;;;;;;4.82;1.55;;;17.60;62.00;;;;;;5116323;28;20028;-74
2022/07/08 00:15:48;;;;;;;5.75;1.70;;;17.50;62.40;;;;;;5116206;28;20025;-74
2022/07/08 00:18:14;;;;;;;5.47;1.27;;;17.40;62.70;;;;;;5116225;28;20031;-75
2022/07/08 00:20:39;;;;;;;3.47;1.50;;;17.40;62.90;;;;;;5098413;28;20051;-75
2022/07/08 00:23:05;;;;;;;2.30;1.58;;;17.40;62.90;;;;;;5116108;28;20024;-75
2022/07/08 00:25:31;;;;;;;5.80;1.50;;;17.50;62.90;;;;;;5116176;28;20033;-75
2022/07/08 00:27:56;;;;;;;6.13;1.38;;;17.50;62.70;;;;;;5115608;28;20043;-75
2022/07/08 00:30:22;;;;;;;3.92;1.40;;;17.50;62.60;;;;;;5115957;28;20020;-74
2022/07/08 00:32:48;;;;;;;4.38;1.58;;;17.50;62.70;;;;;;5115925;28;20025;-74
2022/07/08 00:35:13;;;;;;;2.38;1.40;;;17.50;62.80;;;;;;5115887;28;20048;-74
2022/07/08 00:37:39;;;;;;;5.60;1.52;;;17.40;63.00;;;;;;5115775;28;20028;-74
2022/07/08 00:40:05;;;;;;;7.82;1.63;;;17.30;63.30;;;;;;5115630;28;20020;-74
2022/07/08 00:42:30;;;;;;;4.00;1.50;;;17.20;63.70;;;;;;5115680;28;20467;-74
2022/07/08 00:44:56;;;;;;;5.45;1.55;;;17.20;63.80;;;;;;5115698;28;20031;-74
2022/07/08 00:47:22;;;;;;;5.78;1.58;;;17.20;63.80;;;;;;5115648;28;20062;-74
2022/07/08 00:49:50;;;;;;;3.70;1.48;;;17.20;63.90;;;;;;5115612;28;20024;-73
2022/07/08 00:52:16;;;;;;;4.03;1.60;;;17.30;63.80;;;;;;5115565;28;20020;-75
2022/07/08 00:54:42;;;;;;;4.68;1.25;;;17.30;63.60;;;;;;5097551;28;20020;-74
2022/07/08 00:57:08;;;;;;;2.90;1.17;;;17.20;63.60;;;;;;5097758;28;20552;-74
2022/07/08 00:59:33;;;;;;;4.30;1.50;;;17.30;63.60;;;;;;5115434;28;20027;-74
2022/07/08 01:01:59;;;;;;;4.65;1.48;;;17.30;63.80;;;;;;5115357;28;20035;-74
2022/07/08 01:04:25;;;;;;;2.38;1.40;;;17.30;63.60;;;;;;5115276;28;20044;-74
2022/07/08 01:06:50;;;;;;;6.03;1.30;;;17.30;63.70;;;;;;5115276;28;20032;-74
2022/07/08 01:09:16;;;;;;;4.50;1.60;;;17.40;63.60;;;;;;5115369;28;20040;-74
2022/07/08 01:11:47;;;;;;;3.67;1.50;;;17.40;63.40;;;;;;5115152;28;20020;-74
2022/07/08 01:14:14;;;;;;;5.22;1.35;;;17.40;63.10;;;;;;5115162;28;20168;-74
2022/07/08 01:16:39;;;;;;;1.90;0.95;;;17.40;63.10;;;;;;5114948;28;20055;-74
2022/07/08 01:19:05;;;;;;;3.35;1.23;;;17.30;63.10;;;;;;5115009;28;20020;-74
2022/07/08 01:21:31;;;;;;;4.15;1.88;;;17.30;63.20;;;;;;5115016;28;20028;-75
2022/07/08 01:23:56;;;;;;;3.50;1.27;;;17.20;63.30;;;;;;5096924;28;20035;-74
2022/07/08 01:32:17;;;;;;;4.57;1.63;;;17.00;64.00;;;;;;5114802;28;20032;-74
2022/07/08 01:34:43;;;;;;;3.78;1.65;;;17.00;64.00;;;;;;5114730;28;20035;-74
2022/07/08 01:37:08;;;;;;;2.28;1.23;;;16.90;64.10;;;;;;5114627;28;20077;-74
2022/07/08 01:39:34;;;;;;;3.65;1.35;;;16.90;64.30;;;;;;5114617;28;20052;-75
2022/07/08 01:42:00;;;;;;;3.65;1.65;;;16.90;64.30;;;;;;5114598;28;20046;-74
2022/07/08 01:44:25;;;;;;;5.32;1.55;;;16.90;64.30;;;;;;5096596;28;20044;-75
2022/07/08 01:46:51;;;;;;;4.13;1.52;;;16.80;64.30;;;;;;5114511;28;20043;-75
2022/07/08 01:49:16;;;;;;;5.63;1.80;;;16.70;64.40;;;;;;5114466;28;20050;-74
2022/07/08 01:51:42;;;;;;;4.82;1.70;;;16.70;64.60;;;;;;5114305;28;20040;-75
2022/07/08 01:54:08;;;;;;;6.13;1.63;;;16.70;64.70;;;;;;5113951;28;20028;-75
2022/07/08 01:56:33;;;;;;;3.80;1.70;;;16.60;64.70;;;;;;5096304;28;20080;-74
2022/07/08 01:58:59;;;;;;;4.07;1.48;;;16.70;64.50;;;;;;5096413;28;20020;-74
2022/07/08 02:01:25;;;;;;;5.72;1.73;;;16.60;65.40;;;;;;5096367;28;20376;-74
2022/07/08 02:03:50;;;;;;;4.75;1.50;;;16.60;64.90;;;;;;5114179;28;20066;-74
2022/07/08 02:06:16;;;;;;;3.67;1.60;;;16.50;65.90;;;;;;5079581;28;20028;-75
2022/07/08 02:08:41;;;;;;;5.30;1.58;;;16.50;65.00;;;;;;5096250;28;20032;-74
2022/07/08 02:13:51;;;;;;;6.20;1.40;;;16.50;65.10;;;;;;5114194;28;20047;-74
2022/07/08 02:16:17;;;;;;;4.80;1.50;;;16.60;65.00;;;;;;5113907;28;20051;-74
2022/07/08 02:18:42;;;;;;;3.85;1.35;;;16.60;65.10;;;;;;5113965;28;20031;-74
2022/07/08 02:21:08;;;;;;;3.30;1.33;;;16.60;64.90;;;;;;5113909;28;20031;-75
2022/07/08 02:23:33;;;;;;;3.65;1.25;;;16.50;65.00;;;;;;5113881;28;20031;-75
2022/07/08 02:25:59;;;;;;;4.15;1.10;;;16.40;65.30;;;;;;5113864;28;20039;-74
2022/07/08 02:28:25;;;;;;;5.88;1.40;;;16.30;65.60;;;;;;5113756;28;20036;-74
2022/07/08 02:30:50;;;;;;;4.32;1.35;;;16.30;65.60;;;;;;5113733;28;20024;-75
2022/07/08 02:33:16;;;;;;;2.92;1.40;;;16.30;65.60;;;;;;5113737;28;20050;-75
2022/07/08 02:35:42;;;;;;;2.95;1.55;;;16.30;65.60;;;;;;5095816;28;20028;-74
2022/07/08 02:38:07;;;;;;;7.13;1.50;;;16.20;65.90;;;;;;5113644;28;20020;-75
2022/07/08 02:40:33;;;;;;;5.65;1.55;;;16.10;66.20;;;;;;5095715;28;20046;-74
2022/07/08 02:42:58;;;;;;;6.93;1.40;;;16.00;66.30;;;;;;5113619;28;20020;-74
2022/07/08 02:45:24;;;;;;;3.58;1.50;;;16.00;66.20;;;;;;5113683;28;20379;-75
2022/07/08 02:47:50;;;;;;;2.55;1.50;;;15.90;66.40;;;;;;5113574;28;20031;-74
2022/07/08 02:50:15;;;;;;;5.10;1.35;;;16.00;66.40;;;;;;5095841;28;20035;-74
2022/07/08 02:52:41;;;;;;;5.38;1.45;;;16.00;66.20;;;;;;5113514;28;20032;-74
2022/07/08 02:55:07;;;;;;;5.50;1.63;;;15.90;66.40;;;;;;5113403;28;20048;-74
2022/07/08 02:57:32;;;;;;;3.35;1.45;;;15.70;66.70;;;;;;5113555;28;20024;-74
2022/07/08 02:59:58;;;;;;;7.13;1.63;;;15.70;67.20;;;;;;5113474;28;20051;-74
2022/07/08 03:02:24;;;;;;;5.43;1.50;;;15.70;67.10;;;;;;5095526;28;20028;-74
2022/07/08 03:04:49;;;;;;;4.75;1.67;;;15.80;66.80;;;;;;5114610;28;20024;-75
2022/07/08 03:07:15;;;;;;;4.00;1.50;;;15.80;66.50;;;;;;5117686;28;20028;-74
2022/07/08 03:09:40;;;;;;;3.22;1.15;;;15.80;66.50;;;;;;5099591;28;20032;-74
2022/07/08 03:12:06;;;;;;;2.70;1.40;;;15.70;66.50;;;;;;5117502;28;20050;-74
2022/07/08 03:14:32;;;;;;;2.35;1.50;;;15.70;66.50;;;;;;5117611;28;20074;-74
2022/07/08 03:16:57;;;;;;;5.00;1.60;;;15.60;66.60;;;;;;5099434;28;20036;-74
2022/07/08 03:19:23;;;;;;;4.70;1.33;;;15.70;66.70;;;;;;5117356;28;20024;-74
2022/07/08 03:21:49;;;;;;;3.88;1.30;;;15.70;66.50;;;;;;5117293;28;20059;-74
2022/07/08 03:24:14;;;;;;;2.15;1.67;;;15.80;66.40;;;;;;5117252;28;20090;-74
2022/07/08 03:26:40;;;;;;;4.25;1.48;;;15.80;66.30;;;;;;5117240;28;20032;-74
2022/07/08 03:29:05;;;;;;;5.20;1.52;;;15.70;66.30;;;;;;5117119;28;20020;-74
2022/07/08 03:31:31;;;;;;;4.90;1.90;;;15.70;66.50;;;;;;5117136;28;20371;-74
2022/07/08 03:33:56;;;;;;;6.15;1.60;;;15.60;66.80;;;;;;5117093;28;20043;-75
2022/07/08 03:36:22;;;;;;;4.97;1.73;;;15.60;66.80;;;;;;5116979;28;20032;-74
2022/07/08 03:38:49;;;;;;;4.85;1.70;;;15.50;67.00;;;;;;5098954;28;20028;-74
2022/07/08 03:41:20;;;;;;;5.55;2.15;;;15.60;66.90;;;;;;5116918;28;20031;-74
2022/07/08 03:43:51;;;;;;;4.30;1.90;;;15.70;66.80;;;;;;5117095;28;20031;-74
2022/07/08 03:46:17;;;;;;;4.60;1.95;;;15.70;66.80;;;;;;5117019;28;20032;-74
2022/07/08 03:48:42;;;;;;;3.63;2.20;;;15.70;66.80;;;;;;5116800;28;20028;-74
2022/07/08 03:51:08;;;;;;;7.57;1.90;;;15.60;67.00;;;;;;5116747;28;20091;-74
2022/07/08 03:53:34;;;;;;;5.75;2.45;;;15.70;67.30;;;;;;5116715;28;20030;-74
2022/07/08 03:56:00;;;;;;;3.97;2.33;;;15.50;67.60;;;;;;5116386;28;20051;-74
2022/07/08 03:58:25;;;;;;;6.95;2.53;;;15.50;68.10;;;;;;5116643;28;20031;-74
2022/07/08 04:00:51;;;;;;;5.88;2.50;;;15.40;68.40;;;;;;5098812;28;20043;-74
2022/07/08 04:03:17;;;;;;;8.25;3.47;;;15.50;68.70;;;;;;5098621;28;20047;-74
2022/07/08 04:05:43;;;;;;;6.22;2.28;;;15.50;68.70;;;;;;5081771;28;20027;-74
2022/07/08 04:08:08;;;;;;;6.15;2.33;;;15.50;69.00;;;;;;5116434;28;20059;-75
2022/07/08 04:10:34;;;;;;;4.40;2.33;;;15.50;68.80;;;;;;5116540;28;20038;-75
2022/07/08 04:13:00;;;;;;;8.10;2.40;;;15.50;68.80;;;;;;5116364;28;20020;-74
2022/07/08 04:15:25;;;;;;;6.30;2.60;;;15.40;68.90;;;;;;5115629;28;20058;-75
2022/07/08 04:17:52;;;;;;;8.57;2.53;;;15.40;68.80;;;;;;5116247;28;20031;-74
2022/07/08 04:20:18;;;;;;;8.65;2.90;;;15.40;68.80;;;;;;5116192;28;20016;-74
2022/07/08 04:22:44;;;;;;;9.45;2.63;;;15.50;68.70;;;;;;5116105;28;20031;-74
2022/07/08 04:25:10;;;;;;;5.93;2.60;;;15.50;68.70;;;;;;5116128;28;20028;-74
2022/07/08 04:27:36;;;;;;;5.50;2.70;;;15.60;68.70;;;;;;5116075;28;20031;-75
2022/07/08 04:30:03;;;;;;;7.70;2.95;;;15.50;69.00;;;;;;5115955;28;20028;-74
2022/07/08 04:32:29;;;;;;;7.95;3.38;;;15.50;69.20;;;;;;5115981;28;20032;-74
2022/07/08 04:34:58;;;;;;;6.25;2.88;;;15.50;69.50;;;;;;5098196;28;20032;-74
2022/07/08 04:37:25;;;;;;;6.05;2.63;;;15.40;70.00;;;;;;5115772;28;20087;-74
2022/07/08 04:39:51;;;;;;;7.03;2.80;;;15.30;70.50;;;;;;5115847;28;20471;-74
2022/07/08 04:42:17;;;;;;;6.20;2.30;;;15.30;70.80;;;;;;5115802;28;20040;-74
2022/07/08 04:44:42;;;;;;;4.60;2.67;;;15.30;71.10;;;;;;5115771;28;20031;-74
2022/07/08 04:47:08;;;;;;;7.15;2.75;;;15.40;71.20;;;;;;5115681;28;20111;-74
2022/07/08 04:49:33;;;;;;;5.15;2.70;;;15.40;71.30;;;;;;5115651;28;20028;-74
2022/07/08 04:51:59;;;;;;;7.10;3.35;;;15.30;71.70;;;;;;5097767;28;20531;-74
2022/07/08 04:54:25;;;;;;;8.80;2.75;;;15.30;72.00;;;;;;5115531;28;20087;-74
2022/07/08 04:56:50;;;;;;;8.27;3.10;;;15.30;72.20;;;;;;5115253;28;20112;-74
2022/07/08 04:59:16;;;;;;;8.15;2.97;;;15.30;72.50;;;;;;5115414;28;20035;-74
2022/07/08 05:01:42;;;;;;;6.72;3.10;;;15.40;72.50;;;;;;5115422;28;20047;-74
2022/07/08 05:04:07;;;;;;;5.60;3.10;;;15.40;72.40;;;;;;5115358;28;20020;-74
2022/07/08 05:06:33;;;;;;;9.07;3.42;;;15.40;72.50;;;;;;5115312;28;20060;-74
2022/07/08 05:08:58;;;;;;;8.40;2.95;;;15.50;72.40;;;;;;5115284;28;20021;-74
2022/07/08 05:11:24;;;;;;;5.82;2.90;;;15.50;72.40;;;;;;5115216;28;20036;-74
2022/07/08 05:13:50;;;;;;;7.05;2.72;;;15.50;72.60;;;;;;5115166;28;20048;-74
2022/07/08 05:16:15;;;;;;;7.47;3.15;;;15.70;72.20;;;;;;5114984;28;20364;-74
2022/07/08 05:18:41;;;;;;;7.65;2.95;;;15.70;72.10;;;;;;5097243;28;20024;-73
2022/07/08 05:21:07;;;;;;;8.00;3.17;;;15.80;71.80;;;;;;5114965;28;20073;-74
2022/07/08 05:23:33;;;;;;;9.60;3.10;;;15.90;71.50;;;;;;5114969;28;20020;-74
2022/07/08 05:25:58;;;;;;;8.02;3.00;;;16.00;71.40;;;;;;5114855;28;20040;-74
2022/07/08 05:28:24;;;;;;;7.35;2.90;;;16.00;71.50;;;;;;5113877;28;20023;-74
2022/07/08 05:30:50;;;;;;;7.13;3.00;;;16.00;71.40;;;;;;5096927;28;20028;-74
2022/07/08 05:33:15;;;;;;;7.68;3.15;;;16.10;71.50;;;;;;5114906;28;20036;-74
2022/07/08 05:35:41;;;;;;;7.53;2.78;;;16.10;71.20;;;;;;5114638;28;20095;-74
2022/07/08 05:38:07;;;;;;;8.75;3.45;;;16.20;70.80;;;;;;5114707;28;20024;-74
2022/07/08 05:40:32;;;;;;;5.10;2.85;;;16.30;70.80;;;;;;5114784;28;20024;-74
2022/07/08 05:42:58;;;;;;;6.40;3.47;;;16.30;70.60;;;;;;5114620;28;20028;-74
2022/07/08 05:45:24;;;;;;;8.60;3.20;;;16.40;70.40;;;;;;5114527;28;20036;-74
2022/07/08 05:47:50;;;;;;;9.43;3.05;;;16.40;70.30;;;;;;5114516;28;20028;-74
2022/07/08 05:50:16;;;;;;;7.40;3.25;;;16.50;70.30;;;;;;5114452;28;20038;-74
2022/07/08 05:52:41;;;;;;;5.57;3.28;;;16.50;70.10;;;;;;5114425;28;20020;-74
2022/07/08 05:55:07;;;;;;;8.55;2.60;;;16.60;70.20;;;;;;5114080;28;20056;-74
2022/07/08 05:57:33;;;;;;;9.57;2.90;;;16.60;69.80;;;;;;5114305;28;20065;-74
2022/07/08 05:59:58;;;;;;;8.75;2.42;;;16.70;69.60;;;;;;5114280;28;20030;-74
2022/07/08 06:02:25;;;;;;;5.95;2.72;;;16.70;69.50;;;;;;5114240;28;20024;-74
2022/07/08 06:04:50;;;;;;;7.03;2.50;;;16.80;69.50;;;;;;5114195;28;20016;-74
2022/07/08 06:07:16;;;;;;;8.15;2.33;;;16.80;69.40;;;;;;5114146;28;20099;-74
2022/07/08 06:09:42;;;;;;;6.40;2.55;;;16.90;69.30;;;;;;5114116;28;20054;-74
2022/07/08 06:12:08;;;;;;;9.20;3.42;;;17.00;69.00;;;;;;5096211;28;20037;-74
2022/07/08 06:14:33;;;;;;;5.60;2.05;;;17.00;68.70;;;;;;5096296;28;20028;-74
2022/07/08 06:16:59;;;;;;;5.60;2.42;;;17.00;68.40;;;;;;5113914;28;20036;-74
2022/07/08 06:19:25;;;;;;;4.00;2.05;;;17.10;68.30;;;;;;5113921;28;20020;-74
2022/07/08 06:21:51;;;;;;;5.07;2.33;;;17.10;68.20;;;;;;5096026;28;20027;-74
2022/07/08 06:24:17;;;;;;;3.13;1.90;;;17.20;68.30;;;;;;5095939;28;20118;-74
2022/07/08 06:26:46;;;;;;;4.30;1.90;;;17.20;68.50;;;;;;5113839;28;20032;-75
2022/07/08 06:29:12;;;;;;;4.18;2.10;;;17.30;68.40;;;;;;5113717;28;20024;-74
2022/07/08 06:31:38;;;;;;;6.28;2.00;;;17.30;68.10;;;;;;5113775;28;20046;-74
2022/07/08 06:34:04;;;;;;;3.35;1.83;;;17.30;67.90;;;;;;5113772;28;20027;-74
2022/07/08 06:36:31;;;;;;;5.80;1.85;;;17.30;67.80;;;;;;5113659;28;20032;-74
2022/07/08 06:38:56;;;;;;;5.55;2.15;;;17.30;67.70;;;;;;5113444;28;20069;-74
2022/07/08 06:41:22;;;;;;;10.10;1.80;;;17.40;67.80;;;;;;5095868;28;20075;-74
2022/07/08 06:43:47;;;;;;;6.28;1.88;;;17.50;67.80;;;;;;5113641;28;20028;-74
2022/07/08 06:46:13;;;;;;;6.28;2.10;;;17.60;67.60;;;;;;5095723;28;20042;-74
2022/07/08 06:48:39;;;;;;;5.90;2.13;;;17.60;67.10;;;;;;5095744;28;20024;-74
2022/07/08 06:51:05;;;;;;;7.85;1.92;;;17.60;66.80;;;;;;5113521;28;20064;-74
2022/07/08 06:56:15;;;;;;;7.65;1.70;;;17.70;66.70;;;;;;5113371;28;20170;-75
2022/07/08 06:58:41;;;;;;;4.53;1.67;;;17.80;66.40;;;;;;5113502;28;20028;-74
2022/07/08 07:01:06;;;;;;;6.97;1.70;;;17.70;66.30;;;;;;5095586;28;20042;-75
2022/07/08 07:03:32;;;;;;;8.35;2.10;;;17.80;66.40;;;;;;5113444;28;20087;-74
2022/07/08 07:05:58;;;;;;;7.65;2.28;;;17.90;66.50;;;;;;5113390;28;20062;-74
2022/07/08 07:08:23;;;;;;;7.63;2.40;;;17.90;66.50;;;;;;5095618;28;20039;-74
2022/07/08 07:10:49;;;;;;;5.40;1.70;;;17.90;66.30;;;;;;5113371;28;20043;-74
2022/07/08 07:13:15;;;;;;;7.68;1.85;;;17.80;66.10;;;;;;5113330;28;20028;-74
2022/07/08 07:15:40;;;;;;;3.22;1.60;;;17.90;66.40;;;;;;5113250;28;20024;-74
2022/07/08 07:18:08;;;;;;;6.88;2.25;;;18.00;66.30;;;;;;5113273;28;20032;-75
2022/07/08 07:20:35;;;;;;;4.25;1.42;;;18.00;66.50;;;;;;5113273;28;20028;-75
2022/07/08 07:23:00;;;;;;;2.50;1.13;;;18.00;66.50;;;;;;5113222;28;20048;-75
2022/07/08 07:25:26;;;;;;;6.25;1.77;;;18.00;66.50;;;;;;5113215;28;20031;-75
2022/07/08 07:27:52;;;;;;;5.32;1.70;;;18.10;66.40;;;;;;5113143;28;20027;-75
2022/07/08 07:30:20;;;;;;;4.93;1.70;;;18.10;66.20;;;;;;5095575;28;20513;-75
2022/07/08 07:32:46;;;;;;;7.55;2.08;;;18.20;66.10;;;;;;5113173;28;20115;-74
2022/07/08 07:35:11;;;;;;;4.63;2.05;;;18.30;65.90;;;;;;5113154;28;20028;-74
2022/07/08 07:37:37;;;;;;;4.78;1.42;;;18.30;65.70;;;;;;5113044;28;20036;-74
2022/07/08 07:40:05;;;;;;;4.63;1.35;;;18.40;65.40;;;;;;5113222;28;20025;-74
2022/07/08 07:42:31;;;;;;;3.95;1.60;;;18.50;65.20;;;;;;5113041;28;20023;-74
2022/07/08 07:44:56;;;;;;;6.90;1.65;;;18.50;65.30;;;;;;5113074;28;20020;-74
2022/07/08 07:47:22;;;;;;;3.92;1.70;;;18.50;65.50;;;;;;5113043;28;20020;-75
2022/07/08 07:49:49;;;;;;;2.30;1.17;;;18.60;65.30;;;;;;5113005;28;20475;-74
2022/07/08 07:52:14;;;;;;;8.13;1.60;;;18.70;65.30;;;;;;5116280;28;20024;-74
2022/07/08 07:54:40;;;;;;;5.13;1.83;;;18.80;65.10;;;;;;5116744;28;20506;-74
2022/07/08 07:57:06;;;;;;;4.18;1.50;;;18.90;64.60;;;;;;5116416;28;20072;-74
2022/07/08 07:59:31;;;;;;;4.20;1.55;;;18.90;64.30;;;;;;5116741;28;20035;-74
2022/07/08 08:01:57;;;;;;;4.53;1.73;;;18.90;63.80;;;;;;5116553;28;20028;-74
2022/07/08 08:04:22;;;;;;;4.68;1.27;;;18.90;63.70;;;;;;5116514;28;20020;-74
2022/07/08 08:06:48;;;;;;;4.70;1.55;;;18.90;63.60;;;;;;5116449;28;20036;-75
2022/07/08 08:09:14;;;;;;;7.03;1.92;;;18.90;63.50;;;;;;5098511;28;20038;-74
2022/07/08 08:11:39;;;;;;;6.65;2.00;;;18.90;63.70;;;;;;5116402;28;20105;-74
2022/07/08 08:14:05;;;;;;;4.60;1.27;;;18.90;63.50;;;;;;5116368;28;20083;-74
2022/07/08 08:16:30;;;;;;;3.90;1.20;;;18.90;63.70;;;;;;5116339;28;20032;-74
2022/07/08 08:18:56;;;;;;;4.68;1.38;;;19.00;63.30;;;;;;5098333;28;20039;-74
2022/07/08 08:21:21;;;;;;;4.45;1.30;;;19.10;63.60;;;;;;5116214;28;20029;-74
2022/07/08 08:23:47;;;;;;;4.05;1.50;;;19.20;63.00;;;;;;5116314;28;20048;-74
2022/07/08 08:26:13;;;;;;;6.25;1.60;;;19.20;63.20;;;;;;5116123;28;20036;-75
2022/07/08 08:28:38;;;;;;;5.88;1.25;;;19.30;61.80;;;;;;5116130;28;20028;-74
2022/07/08 08:31:04;;;;;;;3.60;1.40;;;19.30;61.50;;;;;;5115998;28;20032;-74
2022/07/08 08:33:30;;;;;;;6.07;1.40;;;19.40;62.10;;;;;;5115954;28;20031;-75
2022/07/08 08:35:55;;;;;;;8.57;1.33;;;19.40;61.20;;;;;;5115890;28;20114;-75
2022/07/08 08:38:21;;;;;;;6.03;1.23;;;19.40;59.60;;;;;;5115882;28;20032;-74
2022/07/08 08:40:47;;;;;;;3.03;1.20;;;19.50;60.50;;;;;;5097936;28;20020;-74
2022/07/08 08:43:13;;;;;;;5.75;1.40;;;19.60;61.00;;;;;;5115835;28;20027;-74
2022/07/08 08:45:39;;;;;;;3.80;1.42;;;19.60;60.80;;;;;;5115739;28;20028;-74
2022/07/08 08:48:10;;;;;;;6.45;1.42;;;19.70;60.70;;;;;;5097759;28;20023;-74
2022/07/08 08:50:54;;;;;;;6.00;1.70;;;19.70;60.60;;;;;;5115649;28;20023;-74
2022/07/08 08:53:38;;;;;;;4.32;1.40;;;19.80;61.00;;;;;;5115686;28;20047;-74
2022/07/08 08:56:07;;;;;;;5.28;1.40;;;19.90;60.80;;;;;;5115342;28;20044;-75
2022/07/08 08:58:33;;;;;;;7.35;1.85;;;20.00;60.30;;;;;;5115595;28;20040;-74
2022/07/08 09:00:59;;;;;;;2.40;1.17;;;19.90;58.10;;;;;;5115557;28;20028;-74
2022/07/08 09:03:25;;;;;;;5.75;1.40;;;19.90;58.50;;;;;;5115343;28;20046;-74
2022/07/08 09:05:50;;;;;;;7.80;1.90;;;20.00;59.20;;;;;;5115371;28;20028;-74
2022/07/08 09:08:16;;;;;;;6.78;1.60;;;20.10;59.40;;;;;;5115292;28;20095;-74
2022/07/08 09:10:42;;;;;;;6.18;2.20;;;20.10;59.80;;;;;;5115255;28;20020;-74
2022/07/08 09:13:10;;;;;;;4.55;2.38;;;20.20;59.80;;;;;;5115322;28;20070;-74
2022/07/08 09:15:37;;;;;;;6.85;1.98;;;20.30;59.90;;;;;;5097402;28;20027;-75
2022/07/08 09:18:08;;;;;;;5.30;1.70;;;20.40;60.10;;;;;;5115132;28;20024;-74
2022/07/08 09:20:39;;;;;;;6.03;1.67;;;20.40;60.20;;;;;;5115144;28;20024;-74
2022/07/08 09:23:08;;;;;;;5.78;1.80;;;20.40;59.60;;;;;;5115018;28;20055;-74
2022/07/08 09:25:33;;;;;;;2.38;0.95;;;20.50;59.90;;;;;;5114948;28;20107;-74
2022/07/08 09:27:59;;;;;;;3.33;1.40;;;20.60;58.80;;;;;;5114816;28;20024;-74
2022/07/08 09:30:30;;;;;;;5.60;1.33;;;20.60;58.40;;;;;;5114886;28;20012;-74
2022/07/08 09:33:00;;;;;;;3.78;1.60;;;20.60;58.80;;;;;;5114884;28;20024;-74
2022/07/08 09:35:37;;;;;;;6.00;1.30;;;20.60;57.80;;;;;;5114653;28;20020;-74
2022/07/08 09:38:05;;;;;;;4.82;1.10;;;20.60;58.30;;;;;;5114757;28;20020;-74
2022/07/08 09:40:31;;;;;;;4.82;1.58;;;20.60;58.10;;;;;;5114656;28;20040;-74
2022/07/08 09:42:59;;;;;;;3.70;1.30;;;20.70;58.20;;;;;;5114653;28;20044;-74
2022/07/08 09:45:32;;;;;;;3.60;1.13;;;20.80;58.40;;;;;;5114577;28;20036;-74
2022/07/08 09:48:07;;;;;;;4.50;1.55;;;20.90;58.20;;;;;;5114703;28;20040;-74
2022/07/08 09:50:48;;;;;;;2.78;1.63;;;20.90;57.50;;;;;;5114533;28;20017;-74
2022/07/08 09:53:18;;;;;;;5.65;1.40;;;20.80;56.20;;;;;;5096419;28;20020;-74
2022/07/08 09:55:49;;;;;;;5.90;1.50;;;20.70;59.20;;;;;;5114198;28;20044;-74
2022/07/08 09:58:16;;;;;;;5.03;1.48;;;20.80;59.00;;;;;;5114413;28;20047;-74
2022/07/08 10:00:43;;;;;;;3.38;1.58;;;20.90;57.40;;;;;;5114322;28;20118;-74
2022/07/08 10:03:10;;;;;;;3.30;1.60;;;21.00;58.10;;;;;;5114182;28;20066;-74
2022/07/08 10:05:36;;;;;;;4.35;1.58;;;20.90;57.30;;;;;;5114201;28;20020;-74
2022/07/08 10:08:02;;;;;;;6.90;1.67;;;20.90;58.30;;;;;;5114164;28;20035;-74
2022/07/08 10:10:28;;;;;;;6.32;1.23;;;21.00;59.00;;;;;;5114171;28;20017;-74
2022/07/08 10:12:58;;;;;;;5.68;1.60;;;21.10;59.50;;;;;;5113839;28;20032;-74
2022/07/08 10:15:29;;;;;;;2.55;1.20;;;21.30;58.70;;;;;;5113938;28;20429;-74
2022/07/08 10:18:00;;;;;;;3.47;1.58;;;21.40;57.40;;;;;;5113706;28;20032;-74
2022/07/08 10:20:31;;;;;;;4.38;1.75;;;21.50;56.10;;;;;;5096112;28;20079;-74
2022/07/08 10:23:00;;;;;;;5.65;1.65;;;21.60;55.50;;;;;;5096666;28;20020;-74
2022/07/08 10:25:27;;;;;;;3.35;1.52;;;21.60;56.20;;;;;;5113879;28;20074;-74
2022/07/08 10:28:02;;;;;;;4.05;1.33;;;21.70;56.50;;;;;;5113791;28;20027;-73
2022/07/08 10:30:32;;;;;;;3.35;1.23;;;21.90;55.90;;;;;;5113884;28;20028;-73
2022/07/08 10:33:01;;;;;;;4.40;1.65;;;21.90;55.90;;;;;;5113764;28;20097;-73
2022/07/08 10:35:27;;;;;;;3.15;1.30;;;21.80;55.60;;;;;;5113817;28;20035;-73
2022/07/08 10:37:59;;;;;;;5.82;1.40;;;21.80;56.00;;;;;;5113634;28;20032;-73
2022/07/08 10:40:43;;;;;;;3.22;1.15;;;21.90;55.60;;;;;;5095887;28;20475;-73
2022/07/08 10:43:21;;;;;;;3.20;1.73;;;22.00;56.40;;;;;;5113639;28;20024;-73
2022/07/08 10:46:17;;;;;;;2.33;1.05;;;22.00;54.80;;;;;;5113671;28;20016;-74
2022/07/08 10:48:45;;;;;;;5.57;1.27;;;22.20;55.50;;;;;;5113662;28;20028;-74
2022/07/08 10:51:20;;;;;;;3.60;1.40;;;22.20;55.40;;;;;;5113559;28;20091;-74
2022/07/08 10:53:51;;;;;;;4.03;1.30;;;22.40;55.00;;;;;;5113521;28;20074;-73
2022/07/08 10:56:49;;;;;;;3.03;1.00;;;22.40;55.40;;;;;;5113315;28;20048;-73
2022/07/08 10:59:18;;;;;;;3.28;1.05;;;22.50;54.20;;;;;;5095568;28;20035;-73
2022/07/08 11:01:58;;;;;;;4.95;1.42;;;22.70;55.00;;;;;;5113457;28;20031;-73
2022/07/08 11:04:38;;;;;;;2.97;1.40;;;22.90;54.50;;;;;;5113657;28;20050;-74
2022/07/08 11:07:28;;;;;;;3.92;1.35;;;23.00;54.20;;;;;;5113529;28;20032;-74
2022/07/08 11:10:13;;;;;;;4.28;1.50;;;23.10;54.00;;;;;;5113581;28;20031;-74
2022/07/08 11:12:49;;;;;;;4.10;1.42;;;23.20;54.40;;;;;;5113404;28;20024;-74
2022/07/08 11:15:16;;;;;;;2.53;1.25;;;23.30;54.30;;;;;;5113396;28;20053;-73
2022/07/08 11:17:43;;;;;;;4.63;1.88;;;23.40;55.00;;;;;;5113389;28;20051;-74
2022/07/08 11:20:16;;;;;;;2.78;1.20;;;23.40;53.50;;;;;;5113285;28;20035;-74
2022/07/08 11:22:46;;;;;;;2.08;1.10;;;23.40;53.60;;;;;;5113327;28;20024;-74
2022/07/08 11:25:14;;;;;;;3.20;1.50;;;23.40;54.20;;;;;;5113351;28;20031;-74
2022/07/08 11:27:40;;;;;;;4.25;1.60;;;23.50;53.80;;;;;;5117273;28;20027;-74
2022/07/08 11:30:11;;;;;;;3.83;1.60;;;23.50;53.50;;;;;;5117168;28;20027;-74
2022/07/08 11:32:37;;;;;;;4.32;1.35;;;23.50;53.10;;;;;;5117245;28;20024;-74
2022/07/08 11:35:03;;;;;;;3.35;1.55;;;23.50;53.10;;;;;;5117143;28;20110;-74
2022/07/08 11:37:32;;;;;;;4.50;1.48;;;23.50;52.20;;;;;;5116976;28;20039;-74
2022/07/08 11:39:58;;;;;;;3.75;1.58;;;23.40;52.50;;;;;;5117037;28;20028;-74
2022/07/08 11:42:24;;;;;;;4.20;1.40;;;23.40;52.50;;;;;;5116998;28;20024;-74
2022/07/08 11:44:51;;;;;;;4.22;1.50;;;23.50;52.90;;;;;;5116947;28;20040;-74
2022/07/08 11:47:21;;;;;;;4.38;1.30;;;23.60;53.60;;;;;;5116856;28;20071;-73
2022/07/08 11:49:48;;;;;;;2.92;1.63;;;23.60;53.70;;;;;;5116881;28;20027;-74
2022/07/08 11:52:18;;;;;;;4.53;1.75;;;23.70;53.80;;;;;;5116762;28;20056;-74
2022/07/08 11:54:48;;;;;;;4.50;1.83;;;23.60;52.80;;;;;;5116605;28;20036;-74
2022/07/08 11:57:17;;;;;;;3.38;1.48;;;23.60;52.50;;;;;;5116807;28;20112;-74
2022/07/08 11:59:45;;;;;;;5.00;1.67;;;23.70;53.40;;;;;;5116704;28;20008;-74
2022/07/08 12:02:11;;;;;;;3.20;1.33;;;23.60;52.80;;;;;;5116643;28;20087;-74
2022/07/08 12:04:37;;;;;;;6.07;1.60;;;23.60;54.00;;;;;;5116576;28;20024;-74
2022/07/08 12:07:19;;;;;;;3.20;1.50;;;23.70;54.30;;;;;;5116540;28;20110;-74
2022/07/08 12:10:05;;;;;;;5.72;1.70;;;23.80;53.90;;;;;;5116680;28;20024;-74
2022/07/08 12:12:32;;;;;;;4.15;2.00;;;23.90;53.60;;;;;;5098678;28;20028;-74
2022/07/08 12:15:10;;;;;;;3.65;1.88;;;24.10;53.00;;;;;;5116376;28;20073;-74
2022/07/08 12:17:36;;;;;;;5.55;1.70;;;24.00;53.50;;;;;;5116314;28;20374;-74
2022/07/08 12:20:01;;;;;;;2.50;1.42;;;24.20;53.20;;;;;;5116429;28;20077;-74
2022/07/08 12:22:46;;;;;;;2.25;1.45;;;24.30;53.00;;;;;;5116336;28;20049;-74
2022/07/08 12:25:17;;;;;;;4.25;1.45;;;24.40;53.20;;;;;;5116282;28;20083;-74
2022/07/08 12:27:44;;;;;;;3.30;1.50;;;24.40;53.20;;;;;;5116065;28;20020;-74
2022/07/08 12:30:10;;;;;;;2.97;1.42;;;24.40;52.70;;;;;;5116071;28;20024;-74
2022/07/08 12:32:38;;;;;;;4.07;1.60;;;24.40;52.90;;;;;;5116208;28;20032;-74
2022/07/08 12:35:05;;;;;;;3.15;1.70;;;24.30;52.50;;;;;;5116019;28;20028;-74
2022/07/08 12:37:30;;;;;;;2.60;1.73;;;24.30;52.80;;;;;;5115433;28;20088;-74
2022/07/08 12:39:56;;;;;;;5.28;1.55;;;24.30;53.10;;;;;;5115872;28;20085;-74
2022/07/08 12:42:26;;;;;;;4.50;1.65;;;24.40;53.20;;;;;;5115866;28;20032;-74
2022/07/08 12:44:52;;;;;;;4.47;1.80;;;24.50;53.00;;;;;;5115940;28;20016;-74
2022/07/08 12:47:18;;;;;;;4.72;1.90;;;24.60;52.00;;;;;;5115776;28;20113;-75
2022/07/08 12:49:46;;;;;;;8.02;2.00;;;24.60;51.70;;;;;;5115732;28;20020;-74
2022/07/08 12:52:12;;;;;;;4.10;1.60;;;24.70;52.00;;;;;;5115660;28;20031;-74
2022/07/08 12:54:39;;;;;;;5.68;2.40;;;24.70;52.10;;;;;;5115613;28;20024;-74
2022/07/08 12:57:06;;;;;;;4.95;2.20;;;24.70;51.20;;;;;;5115337;28;20067;-74
2022/07/08 12:59:32;;;;;;;2.80;1.42;;;24.70;51.50;;;;;;5115502;28;20092;-74